sensor_id;sensor_type;location;lat;lon;timestamp;temperature;humidity
13211;DHT22;6670;51.53087800;7.23266500;2023-10-08T00:01:19;18.80;99.90
13211;DHT22;6670;51.53087800;7.23266500;2023-10-08T00:03:48;18.70;99.90
13211;DHT22;6670;51.53087800;7.23266500;2023-10-08T00:06:19;18.80;99.90
13211;DHT22;6670;51.53087800;7.23266500;2023-10-08T00:08:47;18.70;99.90
13211;DHT22;6670;51.53087800;7.23266500;2023-10-08T00:11:14;18.70;99.90
13211;DHT22;6670;51.53087800;7.23266500;2023-10-08T00:13:43;18.70;99.90
13211;DHT22;6670;51.53087800;7.23266500;2023-10-08T00:16:12;18.70;99.90
13211;DHT22;6670;51.53087800;7.23266500;2023-10-08T00:18:43;18.70;99.90
13211;DHT22;6670;51.53087800;7.23266500;2023-10-08T00:21:19;18.70;99.90
13211;DHT22;6670;51.53087800;7.23266500;2023-10-08T00:23:53;18.70;99.90
13211;DHT22;6670;51.53087800;7.23266500;2023-10-08T00:26:24;18.70;99.90
13211;DHT22;6670;51.53087800;7.23266500;2023-10-08T00:28:56;18.60;99.90
13211;DHT22;6670;51.53087800;7.23266500;2023-10-08T00:31:25;18.60;99.90
13211;DHT22;6670;51.53087800;7.23266500;2023-10-08T00:33:57;18.60;99.90
13211;DHT22;6670;51.53087800;7.23266500;2023-10-08T00:36:26;18.60;99.90
13211;DHT22;6670;51.53087800;7.23266500;2023-10-08T00:38:53;18.60;99.90
13211;DHT22;6670;51.53087800;7.23266500;2023-10-08T00:41:25;18.50;99.90
13211;DHT22;6670;51.53087800;7.23266500;2023-10-08T00:43:54;18.60;99.90
13211;DHT22;6670;51.53087800;7.23266500;2023-10-08T00:46:25;18.50;99.90
13211;DHT22;6670;51.53087800;7.23266500;2023-10-08T00:48:59;18.50;99.90
13211;DHT22;6670;51.53087800;7.23266500;2023-10-08T00:51:45;18.40;99.90
13211;DHT22;6670;51.53087800;7.23266500;2023-10-08T00:54:26;18.50;99.90
13211;DHT22;6670;51.53087800;7.23266500;2023-10-08T00:56:59;18.50;99.90
13211;DHT22;6670;51.53087800;7.23266500;2023-10-08T00:59:32;18.40;99.90
13211;DHT22;6670;51.53087800;7.23266500;2023-10-08T01:02:16;18.50;99.90
13211;DHT22;6670;51.53087800;7.23266500;2023-10-08T01:04:47;18.40;99.90
13211;DHT22;6670;51.53087800;7.23266500;2023-10-08T01:07:18;18.30;99.90
13211;DHT22;6670;51.53087800;7.23266500;2023-10-08T01:09:45;18.40;99.90
13211;DHT22;6670;51.53087800;7.23266500;2023-10-08T01:12:19;18.30;99.90
13211;DHT22;6670;51.53087800;7.23266500;2023-10-08T01:14:52;18.30;99.90
13211;DHT22;6670;51.53087800;7.23266500;2023-10-08T01:17:21;18.40;99.90
13211;DHT22;6670;51.53087800;7.23266500;2023-10-08T01:19:52;18.40;99.90
13211;DHT22;6670;51.53087800;7.23266500;2023-10-08T01:22:42;18.30;99.90
13211;DHT22;6670;51.53087800;7.23266500;2023-10-08T01:25:10;18.40;99.90
13211;DHT22;6670;51.53087800;7.23266500;2023-10-08T01:27:41;18.40;99.90
13211;DHT22;6670;51.53087800;7.23266500;2023-10-08T01:30:09;18.50;99.90
13211;DHT22;6670;51.53087800;7.23266500;2023-10-08T01:32:44;18.50;99.90
13211;DHT22;6670;51.53087800;7.23266500;2023-10-08T01:35:12;18.40;99.90
13211;DHT22;6670;51.53087800;7.23266500;2023-10-08T01:37:50;18.40;99.90
13211;DHT22;6670;51.53087800;7.23266500;2023-10-08T01:40:18;18.30;99.90
13211;DHT22;6670;51.53087800;7.23266500;2023-10-08T01:42:46;18.30;99.90
13211;DHT22;6670;51.53087800;7.23266500;2023-10-08T01:45:13;18.30;99.90
13211;DHT22;6670;51.53087800;7.23266500;2023-10-08T01:47:46;18.30;99.90
13211;DHT22;6670;51.53087800;7.23266500;2023-10-08T01:50:16;18.20;99.90
13211;DHT22;6670;51.53087800;7.23266500;2023-10-08T01:52:47;18.20;99.90
13211;DHT22;6670;51.53087800;7.23266500;2023-10-08T01:55:16;18.20;99.90
13211;DHT22;6670;51.53087800;7.23266500;2023-10-08T01:57:46;18.20;99.90
13211;DHT22;6670;51.53087800;7.23266500;2023-10-08T02:00:14;18.20;99.90
13211;DHT22;6670;51.53087800;7.23266500;2023-10-08T02:02:47;18.10;99.90
13211;DHT22;6670;51.53087800;7.23266500;2023-10-08T02:05:16;18.10;99.90
13211;DHT22;6670;51.53087800;7.23266500;2023-10-08T02:07:45;18.10;99.90
13211;DHT22;6670;51.53087800;7.23266500;2023-10-08T02:10:13;18.20;99.90
13211;DHT22;6670;51.53087800;7.23266500;2023-10-08T02:12:43;18.10;99.90
13211;DHT22;6670;51.53087800;7.23266500;2023-10-08T02:15:11;18.10;99.90
13211;DHT22;6670;51.53087800;7.23266500;2023-10-08T02:17:38;18.10;99.90
13211;DHT22;6670;51.53087800;7.23266500;2023-10-08T02:20:07;18.10;99.90
13211;DHT22;6670;51.53087800;7.23266500;2023-10-08T02:22:35;18.00;99.90
13211;DHT22;6670;51.53087800;7.23266500;2023-10-08T02:25:04;18.00;99.90
13211;DHT22;6670;51.53087800;7.23266500;2023-10-08T02:27:35;18.00;99.90
13211;DHT22;6670;51.53087800;7.23266500;2023-10-08T02:30:10;18.00;99.90
13211;DHT22;6670;51.53087800;7.23266500;2023-10-08T02:32:38;18.00;99.90
13211;DHT22;6670;51.53087800;7.23266500;2023-10-08T02:35:08;17.90;99.90
13211;DHT22;6670;51.53087800;7.23266500;2023-10-08T02:37:37;18.00;99.90
13211;DHT22;6670;51.53087800;7.23266500;2023-10-08T02:40:07;18.00;99.90
13211;DHT22;6670;51.53087800;7.23266500;2023-10-08T02:42:43;17.90;99.90
13211;DHT22;6670;51.53087800;7.23266500;2023-10-08T02:45:13;18.00;99.90
13211;DHT22;6670;51.53087800;7.23266500;2023-10-08T02:47:41;17.90;99.90
13211;DHT22;6670;51.53087800;7.23266500;2023-10-08T02:50:11;17.90;99.90
13211;DHT22;6670;51.53087800;7.23266500;2023-10-08T02:52:43;17.90;99.90
13211;DHT22;6670;51.53087800;7.23266500;2023-10-08T02:55:12;17.90;99.90
13211;DHT22;6670;51.53087800;7.23266500;2023-10-08T02:57:51;17.90;99.90
13211;DHT22;6670;51.53087800;7.23266500;2023-10-08T03:00:20;17.90;99.90
13211;DHT22;6670;51.53087800;7.23266500;2023-10-08T03:02:56;17.90;99.90
13211;DHT22;6670;51.53087800;7.23266500;2023-10-08T03:05:25;17.90;99.90
13211;DHT22;6670;51.53087800;7.23266500;2023-10-08T03:07:57;17.90;99.90
13211;DHT22;6670;51.53087800;7.23266500;2023-10-08T03:10:26;18.00;99.90
13211;DHT22;6670;51.53087800;7.23266500;2023-10-08T03:12:59;18.00;99.90
13211;DHT22;6670;51.53087800;7.23266500;2023-10-08T03:15:32;18.00;99.90
13211;DHT22;6670;51.53087800;7.23266500;2023-10-08T03:18:13;18.00;99.90
13211;DHT22;6670;51.53087800;7.23266500;2023-10-08T03:20:42;18.00;99.90
13211;DHT22;6670;51.53087800;7.23266500;2023-10-08T03:23:12;17.90;99.90
13211;DHT22;6670;51.53087800;7.23266500;2023-10-08T03:25:52;17.90;99.90
13211;DHT22;6670;51.53087800;7.23266500;2023-10-08T03:28:25;17.80;99.90
13211;DHT22;6670;51.53087800;7.23266500;2023-10-08T03:30:56;17.70;99.90
13211;DHT22;6670;51.53087800;7.23266500;2023-10-08T03:33:31;17.70;99.90
13211;DHT22;6670;51.53087800;7.23266500;2023-10-08T03:36:01;17.60;99.90
13211;DHT22;6670;51.53087800;7.23266500;2023-10-08T03:38:36;17.70;99.90
13211;DHT22;6670;51.53087800;7.23266500;2023-10-08T03:41:26;17.50;99.90
13211;DHT22;6670;51.53087800;7.23266500;2023-10-08T03:43:56;17.50;99.90
13211;DHT22;6670;51.53087800;7.23266500;2023-10-08T03:46:30;17.50;99.90
13211;DHT22;6670;51.53087800;7.23266500;2023-10-08T03:48:58;17.50;99.90
13211;DHT22;6670;51.53087800;7.23266500;2023-10-08T03:51:31;17.60;99.90
13211;DHT22;6670;51.53087800;7.23266500;2023-10-08T03:54:06;17.60;99.90
13211;DHT22;6670;51.53087800;7.23266500;2023-10-08T03:56:47;17.60;99.90
13211;DHT22;6670;51.53087800;7.23266500;2023-10-08T03:59:17;17.40;99.90
13211;DHT22;6670;51.53087800;7.23266500;2023-10-08T04:01:58;17.40;99.90
13211;DHT22;6670;51.53087800;7.23266500;2023-10-08T04:04:36;17.40;99.90
13211;DHT22;6670;51.53087800;7.23266500;2023-10-08T04:07:17;17.40;99.90
13211;DHT22;6670;51.53087800;7.23266500;2023-10-08T04:10:06;17.40;99.90
13211;DHT22;6670;51.53087800;7.23266500;2023-10-08T04:13:05;17.30;99.90
13211;DHT22;6670;51.53087800;7.23266500;2023-10-08T04:15:34;17.20;99.90
13211;DHT22;6670;51.53087800;7.23266500;2023-10-08T04:18:08;17.30;99.90
13211;DHT22;6670;51.53087800;7.23266500;2023-10-08T04:20:36;17.40;99.90
13211;DHT22;6670;51.53087800;7.23266500;2023-10-08T04:23:06;17.40;99.90
13211;DHT22;6670;51.53087800;7.23266500;2023-10-08T04:25:40;17.40;99.90
13211;DHT22;6670;51.53087800;7.23266500;2023-10-08T04:28:09;17.40;99.90
13211;DHT22;6670;51.53087800;7.23266500;2023-10-08T04:30:40;17.40;99.90
13211;DHT22;6670;51.53087800;7.23266500;2023-10-08T04:33:11;17.40;99.90
13211;DHT22;6670;51.53087800;7.23266500;2023-10-08T04:35:41;17.30;99.90
13211;DHT22;6670;51.53087800;7.23266500;2023-10-08T04:38:14;17.30;99.90
13211;DHT22;6670;51.53087800;7.23266500;2023-10-08T04:40:44;17.40;99.90
13211;DHT22;6670;51.53087800;7.23266500;2023-10-08T04:43:15;17.30;99.90
13211;DHT22;6670;51.53087800;7.23266500;2023-10-08T04:45:58;17.20;99.90
13211;DHT22;6670;51.53087800;7.23266500;2023-10-08T04:48:27;17.30;99.90
13211;DHT22;6670;51.53087800;7.23266500;2023-10-08T04:50:58;17.20;99.90
13211;DHT22;6670;51.53087800;7.23266500;2023-10-08T04:53:26;17.20;99.90
13211;DHT22;6670;51.53087800;7.23266500;2023-10-08T04:56:02;17.10;99.90
13211;DHT22;6670;51.53087800;7.23266500;2023-10-08T04:58:31;17.10;99.90
13211;DHT22;6670;51.53087800;7.23266500;2023-10-08T05:01:03;17.00;99.90
13211;DHT22;6670;51.53087800;7.23266500;2023-10-08T05:03:46;17.10;99.90
13211;DHT22;6670;51.53087800;7.23266500;2023-10-08T05:06:34;17.20;99.90
13211;DHT22;6670;51.53087800;7.23266500;2023-10-08T05:09:15;17.30;99.90
13211;DHT22;6670;51.53087800;7.23266500;2023-10-08T05:11:51;17.30;99.90
13211;DHT22;6670;51.53087800;7.23266500;2023-10-08T05:14:36;17.20;99.90
13211;DHT22;6670;51.53087800;7.23266500;2023-10-08T05:17:11;17.30;99.90
13211;DHT22;6670;51.53087800;7.23266500;2023-10-08T05:19:49;17.20;99.90
13211;DHT22;6670;51.53087800;7.23266500;2023-10-08T05:22:43;17.20;99.90
13211;DHT22;6670;51.53087800;7.23266500;2023-10-08T05:25:11;17.20;99.90
13211;DHT22;6670;51.53087800;7.23266500;2023-10-08T05:27:54;17.10;99.90
13211;DHT22;6670;51.53087800;7.23266500;2023-10-08T05:30:26;17.00;99.90
13211;DHT22;6670;51.53087800;7.23266500;2023-10-08T05:32:55;17.00;99.90
13211;DHT22;6670;51.53087800;7.23266500;2023-10-08T05:35:52;16.90;99.90
13211;DHT22;6670;51.53087800;7.23266500;2023-10-08T05:38:29;16.90;99.90
13211;DHT22;6670;51.53087800;7.23266500;2023-10-08T05:41:25;16.90;99.90
13211;DHT22;6670;51.53087800;7.23266500;2023-10-08T05:44:05;16.90;99.90
13211;DHT22;6670;51.53087800;7.23266500;2023-10-08T05:46:50;17.00;99.90
13211;DHT22;6670;51.53087800;7.23266500;2023-10-08T05:49:54;16.90;99.90
13211;DHT22;6670;51.53087800;7.23266500;2023-10-08T05:52:44;16.80;99.90
13211;DHT22;6670;51.53087800;7.23266500;2023-10-08T05:55:21;16.80;99.90
13211;DHT22;6670;51.53087800;7.23266500;2023-10-08T05:58:19;17.00;99.90
13211;DHT22;6670;51.53087800;7.23266500;2023-10-08T06:01:02;16.90;99.90
13211;DHT22;6670;51.53087800;7.23266500;2023-10-08T06:03:40;16.90;99.90
13211;DHT22;6670;51.53087800;7.23266500;2023-10-08T06:06:26;16.90;99.90
13211;DHT22;6670;51.53087800;7.23266500;2023-10-08T06:09:05;16.80;99.90
13211;DHT22;6670;51.53087800;7.23266500;2023-10-08T06:11:53;16.80;99.90
13211;DHT22;6670;51.53087800;7.23266500;2023-10-08T06:14:49;16.90;99.90
13211;DHT22;6670;51.53087800;7.23266500;2023-10-08T06:17:34;17.00;99.90
13211;DHT22;6670;51.53087800;7.23266500;2023-10-08T06:20:22;17.00;99.90
13211;DHT22;6670;51.53087800;7.23266500;2023-10-08T06:22:52;17.00;99.90
13211;DHT22;6670;51.53087800;7.23266500;2023-10-08T06:25:28;17.10;99.90
13211;DHT22;6670;51.53087800;7.23266500;2023-10-08T06:27:56;17.10;99.90
13211;DHT22;6670;51.53087800;7.23266500;2023-10-08T06:30:28;17.20;99.90
13211;DHT22;6670;51.53087800;7.23266500;2023-10-08T06:33:00;17.20;99.90
13211;DHT22;6670;51.53087800;7.23266500;2023-10-08T06:35:29;17.20;99.90
13211;DHT22;6670;51.53087800;7.23266500;2023-10-08T06:37:59;17.20;99.90
13211;DHT22;6670;51.53087800;7.23266500;2023-10-08T06:40:29;17.20;99.90
13211;DHT22;6670;51.53087800;7.23266500;2023-10-08T06:43:08;17.20;99.90
13211;DHT22;6670;51.53087800;7.23266500;2023-10-08T06:45:41;17.20;99.90
13211;DHT22;6670;51.53087800;7.23266500;2023-10-08T06:48:09;17.20;99.90
13211;DHT22;6670;51.53087800;7.23266500;2023-10-08T06:50:44;17.30;99.90
13211;DHT22;6670;51.53087800;7.23266500;2023-10-08T06:53:15;17.40;99.90
13211;DHT22;6670;51.53087800;7.23266500;2023-10-08T06:55:45;17.40;99.90
13211;DHT22;6670;51.53087800;7.23266500;2023-10-08T06:58:14;17.30;99.90
13211;DHT22;6670;51.53087800;7.23266500;2023-10-08T07:00:43;17.30;99.90
13211;DHT22;6670;51.53087800;7.23266500;2023-10-08T07:03:15;17.40;99.90
13211;DHT22;6670;51.53087800;7.23266500;2023-10-08T07:05:45;17.60;99.90
13211;DHT22;6670;51.53087800;7.23266500;2023-10-08T07:08:21;17.80;99.90
13211;DHT22;6670;51.53087800;7.23266500;2023-10-08T07:10:52;17.70;99.90
13211;DHT22;6670;51.53087800;7.23266500;2023-10-08T07:13:20;17.60;99.90
13211;DHT22;6670;51.53087800;7.23266500;2023-10-08T07:15:49;17.70;99.90
13211;DHT22;6670;51.53087800;7.23266500;2023-10-08T07:18:22;17.60;99.90
13211;DHT22;6670;51.53087800;7.23266500;2023-10-08T07:20:54;17.50;99.90
13211;DHT22;6670;51.53087800;7.23266500;2023-10-08T07:23:51;17.40;99.90
13211;DHT22;6670;51.53087800;7.23266500;2023-10-08T07:26:31;17.00;99.90
13211;DHT22;6670;51.53087800;7.23266500;2023-10-08T07:29:03;17.10;99.90
13211;DHT22;6670;51.53087800;7.23266500;2023-10-08T07:31:46;17.30;99.90
13211;DHT22;6670;51.53087800;7.23266500;2023-10-08T07:34:15;17.10;99.90
13211;DHT22;6670;51.53087800;7.23266500;2023-10-08T07:36:46;17.00;99.90
13211;DHT22;6670;51.53087800;7.23266500;2023-10-08T07:39:15;16.80;99.90
13211;DHT22;6670;51.53087800;7.23266500;2023-10-08T07:41:54;16.50;99.90
13211;DHT22;6670;51.53087800;7.23266500;2023-10-08T07:44:22;16.80;99.90
13211;DHT22;6670;51.53087800;7.23266500;2023-10-08T07:46:49;16.60;99.90
13211;DHT22;6670;51.53087800;7.23266500;2023-10-08T07:49:17;16.50;99.90
13211;DHT22;6670;51.53087800;7.23266500;2023-10-08T07:51:56;16.60;99.90
13211;DHT22;6670;51.53087800;7.23266500;2023-10-08T07:54:26;16.80;99.90
13211;DHT22;6670;51.53087800;7.23266500;2023-10-08T07:56:56;16.80;99.90
13211;DHT22;6670;51.53087800;7.23266500;2023-10-08T07:59:34;16.30;99.90
13211;DHT22;6670;51.53087800;7.23266500;2023-10-08T08:02:05;16.20;99.90
13211;DHT22;6670;51.53087800;7.23266500;2023-10-08T08:04:36;16.40;99.90
13211;DHT22;6670;51.53087800;7.23266500;2023-10-08T08:07:04;16.20;99.90
13211;DHT22;6670;51.53087800;7.23266500;2023-10-08T08:09:32;16.30;99.90
13211;DHT22;6670;51.53087800;7.23266500;2023-10-08T08:12:07;16.40;99.90
13211;DHT22;6670;51.53087800;7.23266500;2023-10-08T08:14:37;16.10;99.90
13211;DHT22;6670;51.53087800;7.23266500;2023-10-08T08:17:07;16.10;99.90
13211;DHT22;6670;51.53087800;7.23266500;2023-10-08T08:19:40;16.00;99.90
13211;DHT22;6670;51.53087800;7.23266500;2023-10-08T08:22:10;16.10;99.90
13211;DHT22;6670;51.53087800;7.23266500;2023-10-08T08:24:43;16.10;99.90
13211;DHT22;6670;51.53087800;7.23266500;2023-10-08T08:27:12;16.10;99.90
13211;DHT22;6670;51.53087800;7.23266500;2023-10-08T08:29:50;16.20;99.90
13211;DHT22;6670;51.53087800;7.23266500;2023-10-08T08:32:22;16.10;99.90
13211;DHT22;6670;51.53087800;7.23266500;2023-10-08T08:34:49;16.30;99.90
13211;DHT22;6670;51.53087800;7.23266500;2023-10-08T08:37:19;16.40;99.90
13211;DHT22;6670;51.53087800;7.23266500;2023-10-08T08:39:53;16.20;99.90
13211;DHT22;6670;51.53087800;7.23266500;2023-10-08T08:42:23;16.00;99.90
13211;DHT22;6670;51.53087800;7.23266500;2023-10-08T08:44:54;16.20;99.90
13211;DHT22;6670;51.53087800;7.23266500;2023-10-08T08:47:25;15.80;99.90
13211;DHT22;6670;51.53087800;7.23266500;2023-10-08T08:49:56;15.80;99.90
13211;DHT22;6670;51.53087800;7.23266500;2023-10-08T08:52:27;16.00;99.90
13211;DHT22;6670;51.53087800;7.23266500;2023-10-08T08:54:55;15.90;99.90
13211;DHT22;6670;51.53087800;7.23266500;2023-10-08T08:57:24;15.60;99.90
13211;DHT22;6670;51.53087800;7.23266500;2023-10-08T08:59:53;15.60;99.90
13211;DHT22;6670;51.53087800;7.23266500;2023-10-08T09:02:21;15.60;99.90
13211;DHT22;6670;51.53087800;7.23266500;2023-10-08T09:04:49;15.60;99.90
13211;DHT22;6670;51.53087800;7.23266500;2023-10-08T09:07:20;15.50;99.90
13211;DHT22;6670;51.53087800;7.23266500;2023-10-08T09:09:48;15.60;99.90
13211;DHT22;6670;51.53087800;7.23266500;2023-10-08T09:12:16;15.80;99.90
13211;DHT22;6670;51.53087800;7.23266500;2023-10-08T09:14:46;15.90;99.90
13211;DHT22;6670;51.53087800;7.23266500;2023-10-08T09:17:16;15.60;99.90
13211;DHT22;6670;51.53087800;7.23266500;2023-10-08T09:19:45;15.40;99.90
13211;DHT22;6670;51.53087800;7.23266500;2023-10-08T09:22:12;15.60;99.90
13211;DHT22;6670;51.53087800;7.23266500;2023-10-08T09:24:45;15.60;99.90
13211;DHT22;6670;51.53087800;7.23266500;2023-10-08T09:27:13;15.90;99.90
13211;DHT22;6670;51.53087800;7.23266500;2023-10-08T09:29:42;15.90;99.90
13211;DHT22;6670;51.53087800;7.23266500;2023-10-08T09:32:12;15.60;99.90
13211;DHT22;6670;51.53087800;7.23266500;2023-10-08T09:34:40;15.80;99.90
13211;DHT22;6670;51.53087800;7.23266500;2023-10-08T09:37:10;15.60;99.90
13211;DHT22;6670;51.53087800;7.23266500;2023-10-08T09:39:39;15.40;99.90
13211;DHT22;6670;51.53087800;7.23266500;2023-10-08T09:42:08;15.20;99.90
13211;DHT22;6670;51.53087800;7.23266500;2023-10-08T09:44:38;15.40;99.90
13211;DHT22;6670;51.53087800;7.23266500;2023-10-08T09:47:07;15.30;99.90
13211;DHT22;6670;51.53087800;7.23266500;2023-10-08T09:49:39;15.40;99.90
13211;DHT22;6670;51.53087800;7.23266500;2023-10-08T09:52:08;15.40;99.90
13211;DHT22;6670;51.53087800;7.23266500;2023-10-08T09:54:42;15.40;99.90
13211;DHT22;6670;51.53087800;7.23266500;2023-10-08T09:57:19;15.30;99.90
13211;DHT22;6670;51.53087800;7.23266500;2023-10-08T09:59:48;15.40;99.90
13211;DHT22;6670;51.53087800;7.23266500;2023-10-08T10:02:16;15.50;99.90
13211;DHT22;6670;51.53087800;7.23266500;2023-10-08T10:04:46;15.50;99.90
13211;DHT22;6670;51.53087800;7.23266500;2023-10-08T10:07:15;15.40;99.90
13211;DHT22;6670;51.53087800;7.23266500;2023-10-08T10:09:43;15.50;99.90
13211;DHT22;6670;51.53087800;7.23266500;2023-10-08T10:12:18;15.50;99.90
13211;DHT22;6670;51.53087800;7.23266500;2023-10-08T10:14:52;15.50;99.90
13211;DHT22;6670;51.53087800;7.23266500;2023-10-08T10:17:22;15.20;99.90
13211;DHT22;6670;51.53087800;7.23266500;2023-10-08T10:19:56;15.30;99.90
13211;DHT22;6670;51.53087800;7.23266500;2023-10-08T10:22:29;15.30;99.90
13211;DHT22;6670;51.53087800;7.23266500;2023-10-08T10:24:57;15.30;99.90
13211;DHT22;6670;51.53087800;7.23266500;2023-10-08T10:27:26;15.30;99.90
13211;DHT22;6670;51.53087800;7.23266500;2023-10-08T10:30:02;15.30;99.90
13211;DHT22;6670;51.53087800;7.23266500;2023-10-08T10:32:34;15.40;99.90
13211;DHT22;6670;51.53087800;7.23266500;2023-10-08T10:35:04;15.10;99.90
13211;DHT22;6670;51.53087800;7.23266500;2023-10-08T10:37:33;15.20;99.90
13211;DHT22;6670;51.53087800;7.23266500;2023-10-08T10:40:08;15.10;99.90
13211;DHT22;6670;51.53087800;7.23266500;2023-10-08T10:42:39;15.20;99.90
13211;DHT22;6670;51.53087800;7.23266500;2023-10-08T10:45:41;15.30;99.90
13211;DHT22;6670;51.53087800;7.23266500;2023-10-08T10:48:14;15.30;99.90
13211;DHT22;6670;51.53087800;7.23266500;2023-10-08T10:54:55;15.50;99.90
13211;DHT22;6670;51.53087800;7.23266500;2023-10-08T10:57:41;15.60;99.90
13211;DHT22;6670;51.53087800;7.23266500;2023-10-08T11:00:26;15.70;99.90
13211;DHT22;6670;51.53087800;7.23266500;2023-10-08T11:03:24;15.50;99.90
13211;DHT22;6670;51.53087800;7.23266500;2023-10-08T11:05:58;15.60;99.90
13211;DHT22;6670;51.53087800;7.23266500;2023-10-08T11:08:32;15.80;99.90
13211;DHT22;6670;51.53087800;7.23266500;2023-10-08T11:11:03;15.90;99.90
13211;DHT22;6670;51.53087800;7.23266500;2023-10-08T11:13:35;15.80;99.90
13211;DHT22;6670;51.53087800;7.23266500;2023-10-08T11:16:07;16.00;99.90
13211;DHT22;6670;51.53087800;7.23266500;2023-10-08T11:18:43;16.00;99.90
13211;DHT22;6670;51.53087800;7.23266500;2023-10-08T11:21:11;16.00;99.90
13211;DHT22;6670;51.53087800;7.23266500;2023-10-08T11:23:43;16.00;99.90
13211;DHT22;6670;51.53087800;7.23266500;2023-10-08T11:26:14;15.90;99.90
13211;DHT22;6670;51.53087800;7.23266500;2023-10-08T11:28:45;16.10;99.90
13211;DHT22;6670;51.53087800;7.23266500;2023-10-08T11:31:14;15.90;99.90
13211;DHT22;6670;51.53087800;7.23266500;2023-10-08T11:33:46;15.80;99.90
13211;DHT22;6670;51.53087800;7.23266500;2023-10-08T11:36:20;15.90;99.90
13211;DHT22;6670;51.53087800;7.23266500;2023-10-08T11:38:54;15.90;99.90
13211;DHT22;6670;51.53087800;7.23266500;2023-10-08T11:41:28;16.00;99.90
13211;DHT22;6670;51.53087800;7.23266500;2023-10-08T11:44:16;15.80;99.90
13211;DHT22;6670;51.53087800;7.23266500;2023-10-08T11:46:46;15.90;99.90
13211;DHT22;6670;51.53087800;7.23266500;2023-10-08T11:49:17;16.00;99.90
13211;DHT22;6670;51.53087800;7.23266500;2023-10-08T11:51:45;15.90;99.90
13211;DHT22;6670;51.53087800;7.23266500;2023-10-08T11:54:13;16.00;99.90
13211;DHT22;6670;51.53087800;7.23266500;2023-10-08T11:56:42;16.10;99.90
13211;DHT22;6670;51.53087800;7.23266500;2023-10-08T11:59:10;16.20;99.90
13211;DHT22;6670;51.53087800;7.23266500;2023-10-08T12:01:39;16.30;99.90
13211;DHT22;6670;51.53087800;7.23266500;2023-10-08T12:04:10;16.30;99.90
13211;DHT22;6670;51.53087800;7.23266500;2023-10-08T12:06:39;16.00;99.90
13211;DHT22;6670;51.53087800;7.23266500;2023-10-08T12:12:32;16.30;99.90
13211;DHT22;6670;51.53087800;7.23266500;2023-10-08T12:15:01;16.40;99.90
13211;DHT22;6670;51.53087800;7.23266500;2023-10-08T12:17:29;16.10;99.90
13211;DHT22;6670;51.53087800;7.23266500;2023-10-08T12:20:06;16.30;99.90
13211;DHT22;6670;51.53087800;7.23266500;2023-10-08T12:22:49;16.30;99.90
13211;DHT22;6670;51.53087800;7.23266500;2023-10-08T12:25:16;16.50;99.90
13211;DHT22;6670;51.53087800;7.23266500;2023-10-08T12:27:49;16.50;99.90
13211;DHT22;6670;51.53087800;7.23266500;2023-10-08T12:30:50;16.60;99.90
13211;DHT22;6670;51.53087800;7.23266500;2023-10-08T12:33:24;16.70;99.90
13211;DHT22;6670;51.53087800;7.23266500;2023-10-08T12:39:27;16.60;99.90
13211;DHT22;6670;51.53087800;7.23266500;2023-10-08T12:41:56;16.70;99.90
13211;DHT22;6670;51.53087800;7.23266500;2023-10-08T12:44:40;16.70;99.90
13211;DHT22;6670;51.53087800;7.23266500;2023-10-08T12:47:09;16.60;99.90
13211;DHT22;6670;51.53087800;7.23266500;2023-10-08T12:49:39;16.50;99.90
13211;DHT22;6670;51.53087800;7.23266500;2023-10-08T12:54:41;16.90;99.90
13211;DHT22;6670;51.53087800;7.23266500;2023-10-08T12:57:11;16.80;99.90
13211;DHT22;6670;51.53087800;7.23266500;2023-10-08T12:59:45;16.70;99.90
13211;DHT22;6670;51.53087800;7.23266500;2023-10-08T13:02:17;16.70;99.90
13211;DHT22;6670;51.53087800;7.23266500;2023-10-08T13:04:45;16.40;99.90
13211;DHT22;6670;51.53087800;7.23266500;2023-10-08T13:07:21;16.50;99.90
13211;DHT22;6670;51.53087800;7.23266500;2023-10-08T13:09:48;16.40;99.90
13211;DHT22;6670;51.53087800;7.23266500;2023-10-08T13:12:16;16.50;99.90
13211;DHT22;6670;51.53087800;7.23266500;2023-10-08T13:14:44;16.80;99.90
13211;DHT22;6670;51.53087800;7.23266500;2023-10-08T13:17:12;16.80;99.90
13211;DHT22;6670;51.53087800;7.23266500;2023-10-08T13:19:39;16.90;99.90
13211;DHT22;6670;51.53087800;7.23266500;2023-10-08T13:22:07;17.10;99.90
13211;DHT22;6670;51.53087800;7.23266500;2023-10-08T13:25:01;16.90;99.90
13211;DHT22;6670;51.53087800;7.23266500;2023-10-08T13:27:30;16.80;99.90
13211;DHT22;6670;51.53087800;7.23266500;2023-10-08T13:29:59;16.60;99.90
13211;DHT22;6670;51.53087800;7.23266500;2023-10-08T13:32:31;16.90;99.90
13211;DHT22;6670;51.53087800;7.23266500;2023-10-08T13:35:02;17.00;99.90
13211;DHT22;6670;51.53087800;7.23266500;2023-10-08T13:37:32;17.10;99.90
13211;DHT22;6670;51.53087800;7.23266500;2023-10-08T13:39:59;17.30;99.90
13211;DHT22;6670;51.53087800;7.23266500;2023-10-08T13:42:27;17.40;99.90
13211;DHT22;6670;51.53087800;7.23266500;2023-10-08T13:44:55;17.20;99.90
13211;DHT22;6670;51.53087800;7.23266500;2023-10-08T13:47:26;17.10;99.90
13211;DHT22;6670;51.53087800;7.23266500;2023-10-08T13:49:55;17.10;99.90
13211;DHT22;6670;51.53087800;7.23266500;2023-10-08T13:52:24;17.20;99.90
13211;DHT22;6670;51.53087800;7.23266500;2023-10-08T13:54:52;17.10;99.90
13211;DHT22;6670;51.53087800;7.23266500;2023-10-08T13:57:20;17.10;99.90
13211;DHT22;6670;51.53087800;7.23266500;2023-10-08T13:59:48;16.90;99.90
13211;DHT22;6670;51.53087800;7.23266500;2023-10-08T14:02:16;16.90;99.90
13211;DHT22;6670;51.53087800;7.23266500;2023-10-08T14:04:50;17.10;99.90
13211;DHT22;6670;51.53087800;7.23266500;2023-10-08T14:07:21;17.10;99.90
13211;DHT22;6670;51.53087800;7.23266500;2023-10-08T14:09:49;17.30;99.90
13211;DHT22;6670;51.53087800;7.23266500;2023-10-08T14:12:16;17.40;99.90
13211;DHT22;6670;51.53087800;7.23266500;2023-10-08T14:14:44;17.50;99.90
13211;DHT22;6670;51.53087800;7.23266500;2023-10-08T14:17:17;17.70;99.90
13211;DHT22;6670;51.53087800;7.23266500;2023-10-08T14:20:21;17.70;99.90